SBRF/REC METAR and TAF weather

Enter ICAO airport designator
Station Type Date Time Source
SBRF METAR 2020/09/23 02:00 UTC NOAA

SBRF 230200Z 12008KT 9999 FEW023 26/21 Q1017


Station Type Date Time Source
SBRF Decoded METAR 2020/09/23 02:00 UTC NOAA

Recife Aeroporto , Brazil (SBRF) 08-04S 034-51W
Sep 22, 2020 - 10:00 PM EDT / 2020.09.23 0200 UTC
Wind: from the ESE (120 degrees) at 9 MPH (8 KT):0
Visibility: greater than 7 mile(s):0
Sky conditions: mostly clear
Temperature: 78 F (26 C)
Dew Point: 69 F (21 C)
Relative Humidity: 73%
Pressure (altimeter): 30.03 in. Hg (1017 hPa)
ob: SBRF 230200Z 12008KT 9999 FEW023 26/21 Q1017
cycle: 2

Station Type Date Time Source
SBRF TAF 2020/09/23 00:00 UTC NOAA

TAF SBRF 222030Z 2300/2324 08007KT 9999 SCT022 TN24/2309Z TX29/2317Z
BECMG 2302/2304 07005KT 8000 SCT017
BECMG 2308/2310 10010KT 9999 BKN022
BECMG 2313/2315 07012KT SCT020 FEW025TCU
BECMG 2316/2318 09010KT SCT020
BECMG 2320/2322 08007KT SCT025
RMK PHN

Example: see airport list